Time;durP1;ratioP1;P1;durP2;ratioP2;P2;SDS_P1;SDS_P2;PMS_P1;PMS_P2;Temp;Humidity;BMP_temperature;BMP_pressure;BME280_temperature;BME280_humidity;BME280_pressure;Samples;Min_cycle;Max_cycle;Signal;HPM_P1;HPM_P2
2021/08/14 00:01:51;;;;;;;10.73;7.43;;;;;;;;;;5076261;28;20853;-64
2021/08/14 00:04:18;;;;;;;9.10;6.90;;;;;;;;;;5075702;28;20044;-64
2021/08/14 00:06:44;;;;;;;12.55;7.50;;;;;;;;;;5078522;28;20056;-64
2021/08/14 00:09:10;;;;;;;11.98;7.80;;;;;;;;;;5078594;28;20504;-64
2021/08/14 00:11:36;;;;;;;11.32;7.38;;;;;;;;;;5078986;28;20084;-64
2021/08/14 00:14:03;;;;;;;12.48;7.68;;;;;;;;;;5078613;28;20060;-64
2021/08/14 00:16:29;;;;;;;8.80;6.95;;;;;;;;;;5056904;28;20068;-64
2021/08/14 00:18:56;;;;;;;11.13;6.95;;;;;;;;;;5079215;28;20397;-64
2021/08/14 00:21:22;;;;;;;14.32;7.20;;;;;;;;;;5078866;28;20075;-64
2021/08/14 00:23:48;;;;;;;13.48;7.20;;;;;;;;;;5082116;28;20044;-64
2021/08/14 00:26:14;;;;;;;10.85;7.47;;;;;;;;;;5089067;28;20051;-64
2021/08/14 00:28:41;;;;;;;10.57;7.40;;;;;;;;;;5075872;28;20045;-64
2021/08/14 00:31:07;;;;;;;9.43;6.72;;;;;;;;;;5076627;28;20102;-63
2021/08/14 00:33:34;;;;;;;10.15;6.65;;;;;;;;;;5073953;28;20051;-64
2021/08/14 00:36:00;;;;;;;9.80;7.22;;;;;;;;;;5073514;28;20052;-64
2021/08/14 00:38:26;;;;;;;13.45;7.63;;;;;;;;;;5073542;28;20060;-64
2021/08/14 00:40:52;;;;;;;11.85;6.97;;;;;;;;;;5073372;28;20759;-64
2021/08/14 00:43:19;;;;;;;10.45;7.57;;;;;;;;;;5090670;28;20475;-65
2021/08/14 00:45:45;;;;;;;12.10;7.80;;;;;;;;;;5078620;28;20071;-64
2021/08/14 00:48:12;;;;;;;10.95;7.10;;;;;;;;;;5078952;28;20131;-64
2021/08/14 00:50:38;;;;;;;10.90;7.05;;;;;;;;;;5079066;28;20048;-62
2021/08/14 00:53:05;;;;;;;12.77;6.47;;;;;;;;;;5078965;28;20044;-64
2021/08/14 00:55:32;;;;;;;10.52;7.35;;;;;;;;;;5074187;28;20056;-64
2021/08/14 00:57:58;;;;;;;9.88;6.82;;;;;;;;;;5090017;28;20044;-64
2021/08/14 01:00:27;;;;;;;11.75;6.80;;;;;;;;;;5078914;28;20087;-64
2021/08/14 01:02:56;;;;;;;9.55;6.90;;;;;;;;;;5082748;28;20064;-64
2021/08/14 01:05:22;;;;;;;11.30;7.43;;;;;;;;;;5087558;28;20063;-64
2021/08/14 01:07:49;;;;;;;11.23;6.63;;;;;;;;;;5076647;28;20458;-64
2021/08/14 01:10:15;;;;;;;10.02;6.90;;;;;;;;;;5091663;28;20048;-64
2021/08/14 01:12:41;;;;;;;14.57;8.20;;;;;;;;;;5077977;28;20048;-64
2021/08/14 01:15:09;;;;;;;12.20;6.82;;;;;;;;;;5077623;28;20084;-64
2021/08/14 01:17:36;;;;;;;10.18;6.60;;;;;;;;;;5078445;28;20045;-64
2021/08/14 01:20:04;;;;;;;12.63;8.15;;;;;;;;;;5077972;28;20449;-63
2021/08/14 01:22:30;;;;;;;7.80;6.82;;;;;;;;;;5072855;28;20068;-63
2021/08/14 01:24:56;;;;;;;11.50;7.72;;;;;;;;;;5085036;28;20051;-65
2021/08/14 01:27:23;;;;;;;14.20;7.03;;;;;;;;;;5078986;28;20048;-65
2021/08/14 01:29:49;;;;;;;10.02;7.07;;;;;;;;;;5078049;28;20492;-65
2021/08/14 01:32:15;;;;;;;10.48;6.50;;;;;;;;;;5078096;28;20048;-65
2021/08/14 01:34:42;;;;;;;10.43;7.43;;;;;;;;;;5074829;28;20093;-65
2021/08/14 01:37:09;;;;;;;10.85;7.32;;;;;;;;;;5075700;28;20071;-65
2021/08/14 01:39:35;;;;;;;10.07;6.70;;;;;;;;;;5080405;28;20489;-64
2021/08/14 01:42:04;;;;;;;10.70;7.60;;;;;;;;;;5078178;28;20071;-65
2021/08/14 01:44:31;;;;;;;9.38;7.47;;;;;;;;;;5077840;28;20064;-64
2021/08/14 01:46:57;;;;;;;13.52;8.13;;;;;;;;;;5077152;28;20044;-65
2021/08/14 01:49:24;;;;;;;19.65;7.75;;;;;;;;;;5074235;28;20079;-65
2021/08/14 01:51:51;;;;;;;10.38;7.45;;;;;;;;;;5077330;28;20095;-65
2021/08/14 01:54:17;;;;;;;11.85;8.45;;;;;;;;;;5077558;28;20515;-65
2021/08/14 01:56:44;;;;;;;12.82;8.00;;;;;;;;;;5077551;28;20453;-65
2021/08/14 01:59:10;;;;;;;10.63;8.18;;;;;;;;;;5087819;28;20067;-64
2021/08/14 02:01:37;;;;;;;21.08;8.38;;;;;;;;;;5081428;28;20074;-64
2021/08/14 02:04:04;;;;;;;15.45;8.25;;;;;;;;;;5076197;28;20049;-65
2021/08/14 02:06:31;;;;;;;13.77;8.40;;;;;;;;;;5072504;28;20090;-65
2021/08/14 02:08:57;;;;;;;13.65;8.55;;;;;;;;;;5071727;28;20045;-65
2021/08/14 02:11:25;;;;;;;10.82;8.25;;;;;;;;;;5071856;28;20049;-65
2021/08/14 02:13:52;;;;;;;11.35;8.00;;;;;;;;;;5071605;28;20067;-65
2021/08/14 02:16:19;;;;;;;13.50;8.68;;;;;;;;;;5073216;28;20048;-65
2021/08/14 02:18:45;;;;;;;11.85;7.85;;;;;;;;;;5077207;28;20053;-65
2021/08/14 02:21:12;;;;;;;13.40;8.63;;;;;;;;;;5083470;28;20131;-65
2021/08/14 02:23:39;;;;;;;13.02;8.55;;;;;;;;;;5066670;28;20498;-65
2021/08/14 02:26:05;;;;;;;11.00;7.68;;;;;;;;;;5077512;28;20059;-65
2021/08/14 02:28:32;;;;;;;14.88;8.57;;;;;;;;;;5073132;28;20495;-64
2021/08/14 02:31:00;;;;;;;11.82;9.07;;;;;;;;;;5088529;28;20123;-65
2021/08/14 02:33:26;;;;;;;9.98;7.78;;;;;;;;;;5077399;28;20044;-64
2021/08/14 02:35:53;;;;;;;13.45;8.73;;;;;;;;;;5077083;28;20052;-65
2021/08/14 02:38:19;;;;;;;12.05;8.23;;;;;;;;;;5077690;28;20051;-65
2021/08/14 02:40:46;;;;;;;11.10;8.70;;;;;;;;;;5083940;28;20040;-65
2021/08/14 02:43:14;;;;;;;13.18;8.38;;;;;;;;;;5087504;28;20523;-65
2021/08/14 02:45:40;;;;;;;12.80;8.25;;;;;;;;;;5087563;28;20044;-65
2021/08/14 02:48:06;;;;;;;11.85;8.30;;;;;;;;;;5080233;28;20044;-65
2021/08/14 02:50:33;;;;;;;16.38;8.80;;;;;;;;;;5077083;28;20119;-65
2021/08/14 02:52:59;;;;;;;15.02;9.80;;;;;;;;;;5076110;28;20119;-65
2021/08/14 02:55:26;;;;;;;14.38;9.48;;;;;;;;;;5073017;28;20060;-65
2021/08/14 02:57:52;;;;;;;11.88;8.90;;;;;;;;;;5076642;28;20071;-65
2021/08/14 03:00:19;;;;;;;15.07;9.35;;;;;;;;;;5084326;28;20117;-64
2021/08/14 03:02:45;;;;;;;14.73;8.77;;;;;;;;;;5082861;28;20048;-65
2021/08/14 03:05:11;;;;;;;17.60;9.98;;;;;;;;;;5077101;28;20044;-64
2021/08/14 03:07:38;;;;;;;14.77;9.73;;;;;;;;;;5055715;28;20079;-65
2021/08/14 03:10:04;;;;;;;12.82;9.85;;;;;;;;;;5075529;28;20044;-65
2021/08/14 03:12:31;;;;;;;13.80;9.80;;;;;;;;;;5071868;28;20115;-64
2021/08/14 03:14:57;;;;;;;16.05;9.35;;;;;;;;;;5070641;28;20045;-64
2021/08/14 03:17:23;;;;;;;11.50;9.20;;;;;;;;;;5070879;28;20048;-64
2021/08/14 03:19:50;;;;;;;16.08;11.13;;;;;;;;;;5070577;28;20075;-65
2021/08/14 03:22:16;;;;;;;16.00;9.13;;;;;;;;;;5072106;28;20053;-65
2021/08/14 03:24:42;;;;;;;14.45;9.15;;;;;;;;;;5075798;28;20117;-65
2021/08/14 03:27:09;;;;;;;15.77;10.15;;;;;;;;;;5076131;28;20598;-64
2021/08/14 03:29:35;;;;;;;17.70;9.88;;;;;;;;;;5076490;28;20044;-65
2021/08/14 03:32:01;;;;;;;16.83;9.88;;;;;;;;;;5075490;28;20499;-65
2021/08/14 03:34:28;;;;;;;16.08;10.23;;;;;;;;;;5071949;28;20044;-64
2021/08/14 03:36:54;;;;;;;14.07;9.95;;;;;;;;;;5076256;28;20404;-64
2021/08/14 03:39:20;;;;;;;16.52;9.48;;;;;;;;;;5083996;28;20510;-64
2021/08/14 03:41:47;;;;;;;13.88;9.50;;;;;;;;;;5082201;28;20068;-65
2021/08/14 03:44:13;;;;;;;15.85;10.32;;;;;;;;;;5076867;28;20162;-64
2021/08/14 03:46:39;;;;;;;12.63;9.55;;;;;;;;;;5072870;28;20044;-65
2021/08/14 03:49:06;;;;;;;11.82;9.25;;;;;;;;;;5077856;28;20504;-65
2021/08/14 03:51:32;;;;;;;14.52;9.43;;;;;;;;;;5080728;28;20388;-64
2021/08/14 03:53:58;;;;;;;19.50;10.55;;;;;;;;;;5080058;28;20119;-65
2021/08/14 03:56:24;;;;;;;14.70;10.93;;;;;;;;;;5079898;28;20056;-64
2021/08/14 03:58:51;;;;;;;11.52;9.55;;;;;;;;;;5078133;28;20068;-64
2021/08/14 04:01:18;;;;;;;19.70;10.48;;;;;;;;;;5093851;28;20418;-65
2021/08/14 04:03:44;;;;;;;16.65;10.00;;;;;;;;;;5079283;28;20080;-65
2021/08/14 04:06:10;;;;;;;12.85;9.80;;;;;;;;;;5085391;28;20079;-64
2021/08/14 04:08:36;;;;;;;14.25;10.70;;;;;;;;;;5087142;28;20508;-65
2021/08/14 04:11:06;;;;;;;14.50;10.15;;;;;;;;;;5084968;28;20066;-65
2021/08/14 04:13:33;;;;;;;14.57;10.05;;;;;;;;;;5094403;28;20036;-65
2021/08/14 04:15:59;;;;;;;17.73;9.70;;;;;;;;;;5090735;28;20123;-65
2021/08/14 04:18:25;;;;;;;17.40;10.35;;;;;;;;;;5079746;28;20071;-65
2021/08/14 04:20:52;;;;;;;13.95;9.70;;;;;;;;;;5079527;28;20068;-65
2021/08/14 04:23:18;;;;;;;17.13;10.10;;;;;;;;;;5079685;28;20044;-65
2021/08/14 04:25:44;;;;;;;13.50;10.18;;;;;;;;;;5076506;28;20514;-64
2021/08/14 04:28:10;;;;;;;17.20;11.73;;;;;;;;;;5076972;28;20075;-64
2021/08/14 04:30:37;;;;;;;17.65;10.38;;;;;;;;;;5092383;28;20135;-65
2021/08/14 04:33:03;;;;;;;14.73;10.63;;;;;;;;;;5082544;28;20063;-64
2021/08/14 04:35:29;;;;;;;16.10;9.65;;;;;;;;;;5093802;28;20083;-65
2021/08/14 04:37:55;;;;;;;14.68;9.68;;;;;;;;;;5091642;28;20044;-64
2021/08/14 04:40:22;;;;;;;12.93;9.13;;;;;;;;;;5080741;28;20078;-65
2021/08/14 04:42:48;;;;;;;16.25;10.85;;;;;;;;;;5085569;28;20054;-65
2021/08/14 04:45:15;;;;;;;16.05;10.27;;;;;;;;;;5079548;28;20048;-65
2021/08/14 04:47:42;;;;;;;13.98;9.88;;;;;;;;;;5079721;28;20060;-65
2021/08/14 04:50:09;;;;;;;14.25;9.98;;;;;;;;;;5084316;28;20033;-65
2021/08/14 04:52:36;;;;;;;11.52;9.30;;;;;;;;;;5074672;28;20052;-65
2021/08/14 04:55:02;;;;;;;14.70;9.15;;;;;;;;;;5103133;28;20090;-65
2021/08/14 04:57:28;;;;;;;13.63;9.63;;;;;;;;;;5086242;28;20109;-65
2021/08/14 04:59:55;;;;;;;17.83;10.07;;;;;;;;;;5083602;28;20500;-65
2021/08/14 05:02:21;;;;;;;12.93;9.30;;;;;;;;;;5081826;28;20123;-65
2021/08/14 05:04:47;;;;;;;11.95;9.02;;;;;;;;;;5080363;28;20040;-65
2021/08/14 05:07:14;;;;;;;13.93;9.88;;;;;;;;;;5075120;28;20118;-65
2021/08/14 05:09:40;;;;;;;13.88;9.13;;;;;;;;;;5084435;28;20067;-64
2021/08/14 05:12:07;;;;;;;17.30;9.20;;;;;;;;;;5077075;28;20476;-64
2021/08/14 05:14:35;;;;;;;17.75;9.43;;;;;;;;;;5078388;28;20487;-65
2021/08/14 05:17:01;;;;;;;19.02;9.38;;;;;;;;;;5083462;28;20079;-65
2021/08/14 05:19:27;;;;;;;13.60;9.55;;;;;;;;;;5083537;28;20059;-65
2021/08/14 05:21:54;;;;;;;15.27;9.35;;;;;;;;;;5086485;28;20071;-64
2021/08/14 05:24:20;;;;;;;17.50;10.18;;;;;;;;;;5085661;28;20079;-64
2021/08/14 05:26:46;;;;;;;13.15;10.05;;;;;;;;;;5085615;28;20063;-64
2021/08/14 05:29:13;;;;;;;16.15;10.40;;;;;;;;;;5085805;28;20115;-64
2021/08/14 05:31:40;;;;;;;18.05;9.40;;;;;;;;;;5088530;28;20071;-64
2021/08/14 05:34:06;;;;;;;13.68;9.60;;;;;;;;;;5086161;28;20047;-65
2021/08/14 05:36:33;;;;;;;14.55;10.20;;;;;;;;;;5077581;28;20068;-66
2021/08/14 05:39:00;;;;;;;13.30;9.50;;;;;;;;;;5076911;28;20157;-66
2021/08/14 05:41:26;;;;;;;14.15;9.55;;;;;;;;;;5077694;28;20131;-65
2021/08/14 05:43:52;;;;;;;12.88;9.18;;;;;;;;;;5081206;28;20441;-64
2021/08/14 05:46:18;;;;;;;12.75;9.10;;;;;;;;;;5071451;28;20070;-65
2021/08/14 05:48:45;;;;;;;15.23;9.70;;;;;;;;;;5074566;28;20044;-65
2021/08/14 05:51:11;;;;;;;14.43;9.43;;;;;;;;;;5077168;28;20488;-64
2021/08/14 05:53:38;;;;;;;18.77;10.60;;;;;;;;;;5076081;28;20060;-65
2021/08/14 05:56:05;;;;;;;14.65;9.18;;;;;;;;;;5076436;28;20150;-65
2021/08/14 05:58:31;;;;;;;14.60;10.00;;;;;;;;;;5072892;28;20052;-64
2021/08/14 06:00:57;;;;;;;13.98;9.13;;;;;;;;;;5076619;28;20145;-65
2021/08/14 06:03:23;;;;;;;13.73;9.38;;;;;;;;;;5077046;28;20045;-64
2021/08/14 06:05:50;;;;;;;15.23;8.88;;;;;;;;;;5077377;28;20040;-64
2021/08/14 06:08:16;;;;;;;14.40;9.07;;;;;;;;;;5077110;28;20522;-64
2021/08/14 06:10:42;;;;;;;16.75;10.55;;;;;;;;;;5073372;28;20048;-66
2021/08/14 06:13:08;;;;;;;14.60;9.73;;;;;;;;;;5075468;28;20202;-65
2021/08/14 06:15:35;;;;;;;13.77;9.10;;;;;;;;;;5086302;28;20403;-65
2021/08/14 06:18:01;;;;;;;12.90;9.27;;;;;;;;;;5080844;28;20048;-65
2021/08/14 06:20:27;;;;;;;13.35;8.98;;;;;;;;;;5077111;28;20105;-64
2021/08/14 06:22:54;;;;;;;14.60;9.93;;;;;;;;;;5075503;28;20068;-64
2021/08/14 06:25:20;;;;;;;14.30;9.13;;;;;;;;;;5074445;28;20722;-64
2021/08/14 06:27:46;;;;;;;17.13;10.10;;;;;;;;;;5076542;28;20049;-64
2021/08/14 06:30:13;;;;;;;16.20;9.38;;;;;;;;;;5076576;28;20080;-63
2021/08/14 06:32:39;;;;;;;11.30;8.55;;;;;;;;;;5076805;28;20044;-65
2021/08/14 06:35:06;;;;;;;15.48;9.75;;;;;;;;;;5077012;28;20039;-64
2021/08/14 06:37:32;;;;;;;13.07;9.02;;;;;;;;;;5072627;28;20067;-65
2021/08/14 06:40:00;;;;;;;13.63;9.45;;;;;;;;;;5076182;28;20091;-65
2021/08/14 06:42:26;;;;;;;18.48;9.45;;;;;;;;;;5076636;28;20059;-65
2021/08/14 06:44:52;;;;;;;12.13;9.07;;;;;;;;;;5076460;28;20071;-64
2021/08/14 06:47:18;;;;;;;18.45;9.30;;;;;;;;;;5076657;28;20496;-64
2021/08/14 06:49:45;;;;;;;16.75;8.95;;;;;;;;;;5080566;28;20037;-64
2021/08/14 06:52:11;;;;;;;13.68;9.32;;;;;;;;;;5078782;28;20122;-64
2021/08/14 06:54:37;;;;;;;15.80;8.70;;;;;;;;;;5083465;28;20119;-65
2021/08/14 06:57:04;;;;;;;19.45;9.68;;;;;;;;;;5082815;28;20048;-65
2021/08/14 06:59:30;;;;;;;14.63;9.05;;;;;;;;;;5082036;28;20087;-65
2021/08/14 07:01:56;;;;;;;12.50;8.60;;;;;;;;;;5074340;28;20060;-65
2021/08/14 07:04:23;;;;;;;14.60;8.57;;;;;;;;;;5079405;28;20048;-64
2021/08/14 07:06:50;;;;;;;14.32;8.73;;;;;;;;;;5084102;28;20072;-64
2021/08/14 07:09:16;;;;;;;13.82;9.18;;;;;;;;;;5081688;28;20051;-65
2021/08/14 07:11:45;;;;;;;13.57;9.18;;;;;;;;;;5074213;28;20048;-65
2021/08/14 07:14:12;;;;;;;12.13;8.88;;;;;;;;;;5082274;28;20076;-65
2021/08/14 07:16:39;;;;;;;13.35;9.27;;;;;;;;;;5086269;28;20479;-64
2021/08/14 07:19:05;;;;;;;12.25;9.23;;;;;;;;;;5084339;28;20070;-64
2021/08/14 07:21:31;;;;;;;14.30;9.25;;;;;;;;;;5081525;28;20068;-64
2021/08/14 07:23:58;;;;;;;19.73;9.90;;;;;;;;;;5081442;28;20040;-64
2021/08/14 07:26:24;;;;;;;16.27;9.90;;;;;;;;;;5064192;28;20048;-63
2021/08/14 07:28:50;;;;;;;16.88;9.00;;;;;;;;;;5087625;28;20083;-64
2021/08/14 07:31:17;;;;;;;14.60;10.40;;;;;;;;;;5085551;28;20326;-61
2021/08/14 07:33:43;;;;;;;14.40;9.05;;;;;;;;;;5087309;28;20173;-59
2021/08/14 07:36:09;;;;;;;13.18;8.93;;;;;;;;;;5085117;28;20115;-60
2021/08/14 07:38:35;;;;;;;11.50;9.07;;;;;;;;;;5087837;28;20071;-61
2021/08/14 07:41:02;;;;;;;13.93;8.88;;;;;;;;;;5090705;28;20486;-59
2021/08/14 07:43:29;;;;;;;11.68;8.35;;;;;;;;;;5067692;28;20083;-61
2021/08/14 07:45:55;;;;;;;12.18;8.82;;;;;;;;;;5087096;28;20130;-60
2021/08/14 07:48:21;;;;;;;12.65;9.95;;;;;;;;;;5086417;28;20208;-60
2021/08/14 07:50:47;;;;;;;15.18;9.48;;;;;;;;;;5087184;28;20090;-60
2021/08/14 07:53:14;;;;;;;12.82;9.48;;;;;;;;;;5087158;28;20040;-61
2021/08/14 07:55:40;;;;;;;15.23;9.40;;;;;;;;;;5089538;28;20427;-59
2021/08/14 07:58:11;;;;;;;14.35;8.98;;;;;;;;;;5089317;28;20059;-61
2021/08/14 08:00:37;;;;;;;23.88;9.45;;;;;;;;;;5075924;28;20044;-60
2021/08/14 08:03:04;;;;;;;23.75;10.25;;;;;;;;;;5077424;28;20072;-60
2021/08/14 08:05:31;;;;;;;12.55;9.40;;;;;;;;;;5078689;28;20072;-60
2021/08/14 08:07:57;;;;;;;14.43;9.52;;;;;;;;;;5078446;28;20115;-60
2021/08/14 08:10:23;;;;;;;14.57;9.82;;;;;;;;;;5075794;28;20842;-59
2021/08/14 08:12:50;;;;;;;13.80;9.75;;;;;;;;;;5103225;28;20061;-59
2021/08/14 08:15:16;;;;;;;14.35;9.77;;;;;;;;;;5078903;28;20044;-58
2021/08/14 08:17:43;;;;;;;18.35;9.32;;;;;;;;;;5079387;28;20045;-60
2021/08/14 08:20:11;;;;;;;15.73;9.70;;;;;;;;;;5075721;28;20061;-62
2021/08/14 08:22:37;;;;;;;13.10;9.10;;;;;;;;;;5075276;28;20044;-62
2021/08/14 08:25:03;;;;;;;11.25;8.18;;;;;;;;;;5078012;28;20098;-61
2021/08/14 08:27:30;;;;;;;13.65;9.13;;;;;;;;;;5081103;28;20067;-62
2021/08/14 08:29:56;;;;;;;14.73;9.35;;;;;;;;;;5087103;28;20119;-61
2021/08/14 08:32:22;;;;;;;14.93;10.25;;;;;;;;;;5086995;28;20051;-62
2021/08/14 08:34:49;;;;;;;13.23;9.18;;;;;;;;;;5089189;28;20076;-61
2021/08/14 08:37:15;;;;;;;16.25;10.15;;;;;;;;;;5080857;28;20127;-62
2021/08/14 08:39:41;;;;;;;17.30;9.40;;;;;;;;;;5091341;28;20036;-62
2021/08/14 08:42:08;;;;;;;12.07;9.00;;;;;;;;;;5085174;28;20131;-62
2021/08/14 08:44:35;;;;;;;17.25;9.63;;;;;;;;;;5085433;28;20044;-62
2021/08/14 08:47:01;;;;;;;14.77;9.77;;;;;;;;;;5085595;28;20404;-62
2021/08/14 08:49:29;;;;;;;12.50;9.38;;;;;;;;;;5085112;28;20049;-62
2021/08/14 08:51:56;;;;;;;13.70;9.40;;;;;;;;;;5087364;28;20071;-62
2021/08/14 08:54:22;;;;;;;18.20;9.63;;;;;;;;;;5081661;28;20499;-61
2021/08/14 08:56:49;;;;;;;15.55;8.85;;;;;;;;;;5085927;28;20079;-60
2021/08/14 08:59:15;;;;;;;12.63;9.05;;;;;;;;;;5088049;28;20101;-61
2021/08/14 09:01:42;;;;;;;15.23;9.07;;;;;;;;;;5082142;28;20040;-61
2021/08/14 09:04:20;;;;;;;12.88;9.55;;;;;;;;;;5078035;28;20062;-61
2021/08/14 09:06:47;;;;;;;12.82;9.23;;;;;;;;;;5088227;28;20089;-60
2021/08/14 09:09:14;;;;;;;15.15;8.93;;;;;;;;;;5082928;28;20048;-59
2021/08/14 09:11:47;;;;;;;12.82;8.65;;;;;;;;;;5084362;28;20076;-60
2021/08/14 09:14:14;;;;;;;13.60;8.52;;;;;;;;;;5077639;28;20079;-61
2021/08/14 09:16:40;;;;;;;13.38;9.05;;;;;;;;;;5085055;28;20547;-61
2021/08/14 09:19:08;;;;;;;13.60;9.20;;;;;;;;;;5088579;28;20052;-61
2021/08/14 09:21:39;;;;;;;16.08;8.85;;;;;;;;;;5084233;28;20500;-61
2021/08/14 09:24:07;;;;;;;14.10;9.57;;;;;;;;;;5082648;28;20045;-59
2021/08/14 09:26:39;;;;;;;10.65;8.50;;;;;;;;;;5085001;28;20519;-60
2021/08/14 09:29:07;;;;;;;12.10;9.15;;;;;;;;;;5084104;28;20507;-60
2021/08/14 09:31:49;;;;;;;13.15;9.15;;;;;;;;;;5085868;28;20059;-60
2021/08/14 09:34:16;;;;;;;12.00;9.30;;;;;;;;;;5085025;28;20079;-61
2021/08/14 09:36:42;;;;;;;11.43;9.23;;;;;;;;;;5087580;28;20042;-60
2021/08/14 09:39:08;;;;;;;11.77;8.80;;;;;;;;;;5084823;28;20044;-61
2021/08/14 09:41:35;;;;;;;15.65;8.75;;;;;;;;;;5069148;28;20071;-61
2021/08/14 09:44:02;;;;;;;15.15;9.48;;;;;;;;;;5085132;28;20044;-61
2021/08/14 09:46:41;;;;;;;12.63;8.95;;;;;;;;;;5086840;28;20048;-61
2021/08/14 09:49:08;;;;;;;12.32;8.98;;;;;;;;;;5089885;28;20044;-62
2021/08/14 09:51:34;;;;;;;13.68;8.93;;;;;;;;;;5085933;28;20040;-63
2021/08/14 09:54:02;;;;;;;19.70;10.32;;;;;;;;;;5084905;28;20448;-62
2021/08/14 09:56:34;;;;;;;9.38;7.72;;;;;;;;;;5083830;28;20091;-61
2021/08/14 09:59:01;;;;;;;11.52;8.35;;;;;;;;;;5076291;28;20044;-61
2021/08/14 10:01:30;;;;;;;12.48;8.65;;;;;;;;;;5083768;28;20404;-62
2021/08/14 10:03:58;;;;;;;11.02;8.63;;;;;;;;;;5086219;28;20415;-62
2021/08/14 10:06:24;;;;;;;15.10;8.13;;;;;;;;;;5081914;28;20060;-62
2021/08/14 10:08:51;;;;;;;12.35;9.00;;;;;;;;;;5080480;28;20053;-61
2021/08/14 10:11:18;;;;;;;12.45;8.00;;;;;;;;;;5073735;28;20079;-61
2021/08/14 10:13:45;;;;;;;14.82;8.57;;;;;;;;;;5071976;28;20047;-62
2021/08/14 10:16:11;;;;;;;11.55;8.25;;;;;;;;;;5073046;28;20052;-62
2021/08/14 10:18:42;;;;;;;15.27;7.40;;;;;;;;;;5084636;28;20075;-62
2021/08/14 10:21:12;;;;;;;9.20;6.78;;;;;;;;;;5077712;28;20071;-63
2021/08/14 10:23:40;;;;;;;7.93;6.63;;;;;;;;;;5074984;28;20048;-62
2021/08/14 10:26:07;;;;;;;11.30;7.10;;;;;;;;;;5076523;28;20048;-64
2021/08/14 10:28:42;;;;;;;14.63;7.75;;;;;;;;;;5071212;28;20048;-59
2021/08/14 10:31:09;;;;;;;14.55;7.35;;;;;;;;;;5071042;28;20465;-62
2021/08/14 10:33:37;;;;;;;12.55;7.20;;;;;;;;;;5087283;28;20044;-60
2021/08/14 10:36:18;;;;;;;11.80;7.85;;;;;;;;;;5080622;28;20123;-62
2021/08/14 10:38:46;;;;;;;14.48;8.45;;;;;;;;;;5083330;28;20492;-62
2021/08/14 10:41:12;;;;;;;11.60;8.30;;;;;;;;;;5076368;28;20449;-62
2021/08/14 10:43:54;;;;;;;11.65;7.65;;;;;;;;;;5072471;28;20047;-63
2021/08/14 10:46:41;;;;;;;11.82;7.50;;;;;;;;;;5073267;28;20543;-63
2021/08/14 10:49:08;;;;;;;10.27;7.57;;;;;;;;;;5087742;28;20048;-62
2021/08/14 10:51:53;;;;;;;8.52;6.63;;;;;;;;;;5076998;28;20086;-62
2021/08/14 10:54:28;;;;;;;9.20;6.97;;;;;;;;;;5076674;28;20040;-62
2021/08/14 10:56:55;;;;;;;12.35;7.05;;;;;;;;;;5078389;28;20566;-62
2021/08/14 10:59:40;;;;;;;11.25;6.97;;;;;;;;;;5080860;28;20051;-63
2021/08/14 11:02:09;;;;;;;11.00;7.40;;;;;;;;;;5080247;28;20044;-63
2021/08/14 11:04:54;;;;;;;10.90;6.50;;;;;;;;;;5091803;28;20040;-62
2021/08/14 11:07:20;;;;;;;9.60;7.70;;;;;;;;;;5092499;28;20044;-62
2021/08/14 11:09:47;;;;;;;8.85;7.05;;;;;;;;;;5080057;28;20052;-62
2021/08/14 11:12:31;;;;;;;9.02;6.05;;;;;;;;;;5063187;28;20170;-63
2021/08/14 11:15:28;;;;;;;10.95;6.93;;;;;;;;;;5096011;28;20067;-62
2021/08/14 11:17:54;;;;;;;10.95;6.53;;;;;;;;;;5067707;28;20058;-61
2021/08/14 11:20:21;;;;;;;10.60;6.60;;;;;;;;;;5079758;28;20051;-62
2021/08/14 11:22:48;;;;;;;9.88;6.43;;;;;;;;;;5077355;28;20054;-61
2021/08/14 11:25:21;;;;;;;9.07;6.47;;;;;;;;;;5077638;28;20530;-63
2021/08/14 11:27:57;;;;;;;10.98;6.72;;;;;;;;;;5079922;28;20078;-62
2021/08/14 11:30:26;;;;;;;10.10;7.13;;;;;;;;;;5089828;28;20044;-62
2021/08/14 11:32:52;;;;;;;13.43;7.43;;;;;;;;;;5085308;28;20149;-63
2021/08/14 11:35:20;;;;;;;8.35;6.72;;;;;;;;;;5079705;28;20411;-62
2021/08/14 11:37:49;;;;;;;10.63;6.55;;;;;;;;;;5076512;28;20556;-60
2021/08/14 11:40:16;;;;;;;12.30;7.03;;;;;;;;;;5077214;28;20044;-62
2021/08/14 11:42:53;;;;;;;11.85;7.25;;;;;;;;;;5079968;28;20072;-61
2021/08/14 11:45:20;;;;;;;10.75;6.55;;;;;;;;;;5079512;28;20110;-61
2021/08/14 11:47:46;;;;;;;9.75;6.85;;;;;;;;;;5079168;28;20506;-63
2021/08/14 11:50:12;;;;;;;10.38;7.35;;;;;;;;;;5079693;28;20054;-62
2021/08/14 11:52:39;;;;;;;9.15;7.10;;;;;;;;;;5075298;28;20088;-62
2021/08/14 11:55:05;;;;;;;9.68;7.15;;;;;;;;;;5078789;28;20060;-61
2021/08/14 11:57:33;;;;;;;13.25;7.32;;;;;;;;;;5080011;28;20068;-61
2021/08/14 12:00:02;;;;;;;12.20;7.85;;;;;;;;;;5079274;28;20085;-61
2021/08/14 12:02:31;;;;;;;12.15;7.30;;;;;;;;;;5079217;28;20055;-59
2021/08/14 12:04:57;;;;;;;10.82;7.93;;;;;;;;;;5076896;28;20054;-62
2021/08/14 12:07:23;;;;;;;13.85;7.28;;;;;;;;;;5091323;28;20060;-62
2021/08/14 12:09:50;;;;;;;12.27;7.32;;;;;;;;;;5080865;28;20452;-64
2021/08/14 12:12:18;;;;;;;12.05;7.53;;;;;;;;;;5081343;28;20412;-63
2021/08/14 12:14:44;;;;;;;8.52;7.38;;;;;;;;;;5079096;28;20075;-61
2021/08/14 12:17:11;;;;;;;13.90;8.02;;;;;;;;;;5078775;28;20047;-62
2021/08/14 12:19:47;;;;;;;15.07;7.78;;;;;;;;;;5074733;28;20047;-63
2021/08/14 12:22:16;;;;;;;12.40;7.70;;;;;;;;;;5076391;28;20574;-63
2021/08/14 12:24:43;;;;;;;10.88;6.80;;;;;;;;;;5078894;28;20118;-60
2021/08/14 12:27:30;;;;;;;11.60;7.63;;;;;;;;;;5086254;28;20036;-63
2021/08/14 12:30:14;;;;;;;13.85;8.52;;;;;;;;;;5083545;28;20052;-61
2021/08/14 12:32:40;;;;;;;;;;;;;;;;;;5083165;28;20040;-63
2021/08/14 12:35:14;;;;;;;10.32;8.13;;;;;;;;;;5090721;28;19974;-62
2021/08/14 12:37:40;;;;;;;;;;;;;;;;;;5075348;28;20048;-61
2021/08/14 12:40:07;;;;;;;13.02;8.27;;;;;;;;;;5077845;28;19928;-63
2021/08/14 12:42:34;;;;;;;11.23;7.68;;;;;;;;;;5087721;28;20056;-63
2021/08/14 12:45:19;;;;;;;11.18;8.02;;;;;;;;;;5082833;28;20463;-64
2021/08/14 12:47:46;;;;;;;8.50;6.90;;;;;;;;;;5078190;28;20064;-63
2021/08/14 12:50:25;;;;;;;8.88;6.95;;;;;;;;;;5079154;28;20044;-62
2021/08/14 12:52:58;;;;;;;11.25;7.68;;;;;;;;;;5076556;28;20068;-63
2021/08/14 12:55:28;;;;;;;11.65;7.30;;;;;;;;;;5074858;28;20060;-63
2021/08/14 12:57:57;;;;;;;10.63;7.88;;;;;;;;;;5077793;28;20052;-63
2021/08/14 13:00:23;;;;;;;11.15;7.68;;;;;;;;;;5078037;28;20055;-63
2021/08/14 13:02:50;;;;;;;11.10;8.07;;;;;;;;;;5078665;28;20071;-62
2021/08/14 13:05:17;;;;;;;13.95;7.80;;;;;;;;;;5078019;28;20051;-63
2021/08/14 13:07:43;;;;;;;11.27;7.75;;;;;;;;;;5074547;28;20067;-61
2021/08/14 13:10:10;;;;;;;10.85;7.63;;;;;;;;;;5076476;28;20048;-64
2021/08/14 13:12:36;;;;;;;12.40;8.43;;;;;;;;;;5078655;28;20072;-61
2021/08/14 13:15:03;;;;;;;11.88;8.65;;;;;;;;;;5077925;28;20041;-62
2021/08/14 13:17:29;;;;;;;11.20;7.82;;;;;;;;;;5077679;28;20064;-63
2021/08/14 13:19:55;;;;;;;11.00;7.22;;;;;;;;;;5075099;28;20079;-63
2021/08/14 13:22:21;;;;;;;8.65;7.00;;;;;;;;;;5056591;28;20442;-64
2021/08/14 13:24:47;;;;;;;15.57;7.43;;;;;;;;;;5088673;28;20047;-63
2021/08/14 13:27:14;;;;;;;9.50;6.85;;;;;;;;;;5086187;28;20079;-63
2021/08/14 13:29:40;;;;;;;8.48;7.35;;;;;;;;;;5084720;28;20064;-62
2021/08/14 13:32:07;;;;;;;9.60;6.90;;;;;;;;;;5077278;28;20074;-63
2021/08/14 13:34:34;;;;;;;9.77;6.43;;;;;;;;;;5073124;28;20051;-61
2021/08/14 13:37:00;;;;;;;8.48;6.93;;;;;;;;;;5077370;28;20045;-61
2021/08/14 13:39:26;;;;;;;9.43;6.78;;;;;;;;;;5086644;28;20158;-62
2021/08/14 13:41:53;;;;;;;9.38;6.40;;;;;;;;;;5088170;28;20068;-62
2021/08/14 13:44:19;;;;;;;9.98;7.15;;;;;;;;;;5077736;28;20113;-64
2021/08/14 13:46:45;;;;;;;9.60;6.25;;;;;;;;;;5073897;28;20060;-63
2021/08/14 13:49:12;;;;;;;7.65;6.03;;;;;;;;;;5074911;28;20079;-62
2021/08/14 13:51:38;;;;;;;8.75;6.90;;;;;;;;;;5086922;28;20591;-64
2021/08/14 13:54:05;;;;;;;8.65;6.57;;;;;;;;;;5085168;28;20118;-63
2021/08/14 13:56:31;;;;;;;10.02;6.50;;;;;;;;;;5085488;28;20127;-64
2021/08/14 13:58:58;;;;;;;7.20;5.95;;;;;;;;;;5075577;28;20143;-64
2021/08/14 14:01:24;;;;;;;9.30;6.05;;;;;;;;;;5073886;28;20094;-64
2021/08/14 14:03:51;;;;;;;7.63;5.68;;;;;;;;;;5087946;28;20116;-63
2021/08/14 14:06:17;;;;;;;10.18;5.78;;;;;;;;;;5084143;28;20576;-62
2021/08/14 14:08:43;;;;;;;8.88;6.18;;;;;;;;;;5083516;28;20151;-64
2021/08/14 14:11:10;;;;;;;8.25;6.45;;;;;;;;;;5075760;28;20056;-64
2021/08/14 14:13:36;;;;;;;9.38;6.50;;;;;;;;;;5054958;28;20036;-65
2021/08/14 14:16:02;;;;;;;9.80;5.95;;;;;;;;;;5088048;28;20048;-65
2021/08/14 14:18:28;;;;;;;8.45;5.90;;;;;;;;;;5076274;28;20048;-64
2021/08/14 14:20:55;;;;;;;13.20;6.72;;;;;;;;;;5077292;28;20036;-63
2021/08/14 14:23:21;;;;;;;11.70;6.68;;;;;;;;;;5076932;28;20156;-62
2021/08/14 14:25:47;;;;;;;8.70;6.55;;;;;;;;;;5073985;28;20047;-65
2021/08/14 14:28:14;;;;;;;8.52;6.28;;;;;;;;;;5074599;28;20040;-63
2021/08/14 14:30:44;;;;;;;10.27;6.95;;;;;;;;;;5077409;28;20106;-64
2021/08/14 14:33:11;;;;;;;11.10;6.60;;;;;;;;;;5076931;28;20106;-62